createdAt,value
2022-10-05T03:56:14.168Z,101072.18
2022-10-05T03:59:46.270Z,101077.30
2022-10-05T04:03:16.901Z,101069.71
2022-10-05T04:06:46.320Z,101064.34
2022-10-05T04:10:16.919Z,101058.61
2022-10-05T04:13:46.512Z,101059.89
2022-10-05T04:17:11.565Z,101057.11
2022-10-05T04:20:42.836Z,101057.45
2022-10-05T04:24:15.873Z,101061.64
2022-10-05T04:27:44.951Z,101067.73
2022-10-05T04:31:15.722Z,101068.23
2022-10-05T04:34:56.623Z,101071.00
2022-10-05T04:38:36.073Z,101071.68
2022-10-05T04:42:10.605Z,101070.29
2022-10-05T04:45:45.229Z,101069.06
2022-10-05T04:49:26.021Z,101069.62
2022-10-05T04:52:58.417Z,101066.54
2022-10-05T04:56:33.687Z,101064.16
2022-10-05T05:00:17.874Z,101064.56
2022-10-05T05:03:57.596Z,101059.63
2022-10-05T05:07:37.525Z,101063.32
2022-10-05T05:11:15.809Z,101062.02
2022-10-05T05:14:55.516Z,101058.59
2022-10-05T05:18:46.303Z,101051.38
2022-10-05T05:22:25.115Z,101054.33
2022-10-05T05:25:57.055Z,101053.84
2022-10-05T05:29:29.474Z,101056.66
2022-10-05T05:33:10.803Z,101053.89
2022-10-05T05:36:50.085Z,101055.14
2022-10-05T05:40:17.957Z,101056.90
2022-10-05T05:43:55.703Z,101057.57
2022-10-05T05:47:30.794Z,101058.45
2022-10-05T05:50:58.006Z,101054.48
2022-10-05T05:54:28.770Z,101053.15
2022-10-05T05:57:58.366Z,101051.73
2022-10-05T06:01:33.242Z,101052.02
2022-10-05T06:05:09.940Z,101045.66
2022-10-05T06:08:41.052Z,101043.15
2022-10-05T06:12:20.858Z,101056.11
2022-10-05T06:15:51.363Z,101058.14
2022-10-05T06:19:18.309Z,101056.05
2022-10-05T06:22:45.693Z,101060.48
2022-10-05T06:26:20.727Z,101060.39
2022-10-05T06:29:59.218Z,101053.70
2022-10-05T06:33:44.712Z,101052.09
2022-10-05T06:37:13.408Z,101044.05
2022-10-05T06:40:53.919Z,101048.08
2022-10-05T06:44:23.114Z,101047.08
2022-10-05T06:48:04.950Z,101039.27
2022-10-05T06:51:46.449Z,101041.60
2022-10-05T06:55:23.113Z,101039.04
2022-10-05T06:59:00.081Z,101038.73
2022-10-05T07:02:34.812Z,101035.48
2022-10-05T07:06:06.008Z,101033.46
2022-10-05T07:09:40.853Z,101038.64
2022-10-05T07:13:19.818Z,101041.14
2022-10-05T07:16:55.873Z,101030.23
2022-10-05T07:20:27.418Z,101027.41
2022-10-05T07:24:01.039Z,101022.61
2022-10-05T07:27:28.723Z,101020.05
2022-10-05T07:30:58.383Z,101028.23
2022-10-05T07:34:33.718Z,101032.04
2022-10-05T07:38:04.967Z,101031.48
2022-10-05T07:41:37.266Z,101025.33
2022-10-05T07:45:09.277Z,101027.73
2022-10-05T07:48:44.619Z,101028.89
2022-10-05T07:52:15.427Z,101027.24
2022-10-05T07:55:44.905Z,101033.49
2022-10-05T07:59:15.869Z,101027.45
2022-10-05T08:02:47.213Z,101021.55
2022-10-05T08:06:16.456Z,101027.30
2022-10-05T08:09:46.087Z,101016.17
2022-10-05T08:13:16.392Z,101015.38
2022-10-05T08:16:40.656Z,101019.30
2022-10-05T08:20:18.452Z,101019.04
2022-10-05T08:23:47.228Z,101017.40
2022-10-05T08:27:18.077Z,101020.65
2022-10-05T08:30:55.119Z,101021.79
2022-10-05T08:34:26.143Z,101023.16
2022-10-05T08:37:50.834Z,101023.80
2022-10-05T08:41:44.663Z,101031.59
2022-10-05T08:45:57.995Z,101031.98
2022-10-05T08:49:51.012Z,101044.33
2022-10-05T08:53:38.187Z,101047.50
2022-10-05T08:57:33.742Z,101038.73
2022-10-05T09:01:07.166Z,101029.58
2022-10-05T09:04:42.945Z,101020.45
2022-10-05T09:08:50.995Z,101013.23
2022-10-05T09:12:39.726Z,101004.55
2022-10-05T09:16:36.655Z,101005.73
2022-10-05T09:20:20.242Z,101009.72
2022-10-05T09:23:45.664Z,101006.85
2022-10-05T09:27:13.794Z,101005.61
2022-10-05T09:30:56.430Z,101006.84
2022-10-05T09:34:39.133Z,101007.75
2022-10-05T09:38:17.416Z,101006.74
2022-10-05T09:41:58.440Z,101005.32
2022-10-05T09:45:48.097Z,100996.27
2022-10-05T09:49:24.585Z,100986.20
2022-10-05T09:53:10.532Z,100978.61
2022-10-05T09:57:03.880Z,100971.02
2022-10-05T10:00:50.069Z,100971.89
2022-10-05T10:04:34.644Z,100975.18
2022-10-05T10:08:20.687Z,100972.16
2022-10-05T10:12:08.643Z,100973.30
2022-10-05T10:15:47.610Z,100965.39
2022-10-05T10:19:36.324Z,100961.55
2022-10-05T10:23:21.567Z,100963.45
2022-10-05T10:27:05.156Z,100968.71
2022-10-05T10:31:01.231Z,100966.95
2022-10-05T10:35:00.307Z,100962.66
2022-10-05T10:38:39.406Z,100954.25
2022-10-05T10:42:31.904Z,100964.89
2022-10-05T10:46:06.096Z,100961.09
2022-10-05T10:49:53.381Z,100950.60
2022-10-05T10:53:44.996Z,100939.95
2022-10-05T10:57:11.567Z,100939.02
2022-10-05T11:00:47.407Z,100938.39
2022-10-05T11:04:47.461Z,100934.59
2022-10-05T11:08:40.386Z,100938.05
2022-10-05T11:12:35.014Z,100940.34
2022-10-05T11:16:23.663Z,100938.38
2022-10-05T11:20:08.575Z,100939.33
2022-10-05T11:23:55.689Z,100942.31
2022-10-05T11:27:51.206Z,100954.21
2022-10-05T11:31:45.106Z,100958.30
2022-10-05T11:35:41.152Z,100957.88
2022-10-05T11:39:28.053Z,100956.73
2022-10-05T11:43:19.183Z,100949.16
2022-10-05T11:46:54.470Z,100950.34
2022-10-05T11:50:24.977Z,100943.58
2022-10-05T11:53:56.879Z,100937.80
2022-10-05T11:57:28.602Z,100927.36
2022-10-05T12:00:56.338Z,100917.89
2022-10-05T12:04:31.067Z,100912.50
2022-10-05T12:08:09.111Z,100908.59
2022-10-05T12:11:47.448Z,100901.45
2022-10-05T12:15:22.845Z,100894.33
2022-10-05T12:18:55.763Z,100887.52
2022-10-05T12:22:26.362Z,100875.87
2022-10-05T12:25:59.777Z,100871.69
2022-10-05T12:29:28.952Z,100874.40
2022-10-05T12:33:02.388Z,100875.01
2022-10-05T12:36:52.564Z,100871.52
2022-10-05T12:40:26.670Z,100868.90
2022-10-05T12:44:06.200Z,100865.23
2022-10-05T12:47:33.530Z,100867.14
2022-10-05T12:51:06.167Z,100862.39
2022-10-05T12:54:41.960Z,100863.14
2022-10-05T12:58:20.811Z,100862.24
2022-10-05T13:01:51.555Z,100853.37
2022-10-05T13:05:30.355Z,100850.94
2022-10-05T13:08:59.478Z,100850.58
2022-10-05T13:12:35.384Z,100849.91
2022-10-05T13:16:06.832Z,100839.16
2022-10-05T13:19:39.460Z,100841.17
2022-10-05T13:23:09.493Z,100837.46
2022-10-05T13:26:36.130Z,100837.05
2022-10-05T13:30:04.910Z,100834.70
2022-10-05T13:33:56.731Z,100834.60
2022-10-05T13:37:31.094Z,100824.56
2022-10-05T13:41:04.154Z,100821.36
2022-10-05T13:44:33.640Z,100818.88
2022-10-05T13:48:10.494Z,100816.77
2022-10-05T13:51:45.186Z,100811.35
2022-10-05T13:55:27.306Z,100809.11
2022-10-05T13:58:59.327Z,100802.98
2022-10-05T14:02:28.551Z,100802.39
2022-10-05T14:05:57.341Z,100800.74
2022-10-05T14:09:33.720Z,100795.90
2022-10-05T14:12:57.096Z,100794.45
2022-10-05T14:16:23.633Z,100793.70
2022-10-05T14:19:50.517Z,100793.92
2022-10-05T14:23:24.720Z,100789.73
2022-10-05T14:26:53.382Z,100793.38
2022-10-05T14:30:23.671Z,100791.84
2022-10-05T14:33:47.329Z,100785.41
2022-10-05T14:37:20.112Z,100783.55
2022-10-05T14:40:43.284Z,100781.35
2022-10-05T14:44:27.078Z,100774.92
2022-10-05T14:50:19.392Z,100771.30
2022-10-05T14:53:47.489Z,100767.73
2022-10-05T14:57:25.231Z,100767.42
2022-10-05T15:00:58.848Z,100764.28
2022-10-05T15:04:42.881Z,100766.10
2022-10-05T15:08:22.031Z,100760.95
2022-10-05T15:11:53.327Z,100759.01
2022-10-05T15:15:29.360Z,100758.29
2022-10-05T15:19:04.768Z,100759.35
2022-10-05T15:22:40.618Z,100759.17
2022-10-05T15:26:23.344Z,100758.51
2022-10-05T15:30:04.482Z,100758.10
2022-10-05T15:33:36.659Z,100753.96
2022-10-05T15:37:15.208Z,100749.48
2022-10-05T15:40:47.475Z,100749.42
2022-10-05T15:44:22.912Z,100742.98
2022-10-05T15:47:59.497Z,100739.38
2022-10-05T15:51:41.571Z,100736.13
2022-10-05T15:55:32.362Z,100738.59
2022-10-05T15:59:12.132Z,100738.55
2022-10-05T16:02:46.705Z,100737.81
2022-10-05T16:06:47.690Z,100738.64
2022-10-05T16:10:21.475Z,100738.77
2022-10-05T16:14:00.698Z,100739.75
2022-10-05T16:17:52.590Z,100741.27
2022-10-05T16:21:30.666Z,100746.67
2022-10-05T16:25:08.803Z,100741.27
2022-10-05T16:28:49.956Z,100742.73
2022-10-05T16:32:21.740Z,100744.20
2022-10-05T16:35:56.729Z,100746.69
2022-10-05T16:39:39.328Z,100744.60
2022-10-05T16:43:20.294Z,100748.48
2022-10-05T16:46:53.901Z,100747.77
2022-10-05T16:50:25.925Z,100744.75
2022-10-05T16:54:03.114Z,100749.84
2022-10-05T16:57:35.292Z,100751.58
2022-10-05T17:01:20.339Z,100757.54
2022-10-05T17:04:58.104Z,100763.84
2022-10-05T17:08:50.354Z,100770.83
2022-10-05T17:12:31.217Z,100769.57
2022-10-05T17:16:11.453Z,100769.35
2022-10-05T17:19:49.836Z,100772.48
2022-10-05T17:23:53.506Z,100777.88
2022-10-05T17:27:29.008Z,100777.09
2022-10-05T17:31:13.850Z,100776.86
2022-10-05T17:35:01.911Z,100777.85
2022-10-05T17:38:49.904Z,100778.85
2022-10-05T17:42:48.496Z,100777.52
2022-10-05T17:46:35.373Z,100774.46
2022-10-05T17:50:20.490Z,100771.77
2022-10-05T17:54:08.463Z,100767.48
2022-10-05T17:57:36.941Z,100765.29
2022-10-05T18:01:19.905Z,100765.94
2022-10-05T18:05:01.232Z,100766.04
2022-10-05T18:08:37.572Z,100762.98
2022-10-05T18:12:39.810Z,100761.85
2022-10-05T18:16:10.482Z,100760.00
2022-10-05T18:19:37.877Z,100758.30
2022-10-05T18:23:35.662Z,100759.97
2022-10-05T18:27:14.925Z,100757.08
2022-10-05T18:31:00.010Z,100752.27
2022-10-05T18:34:35.664Z,100751.48
2022-10-05T18:38:11.044Z,100751.77
2022-10-05T18:41:50.551Z,100754.49
2022-10-05T18:45:27.109Z,100753.40
2022-10-05T18:49:04.707Z,100755.24
2022-10-05T18:52:56.765Z,100758.69
2022-10-05T18:56:32.932Z,100761.22
2022-10-05T19:00:08.090Z,100763.96
2022-10-05T19:03:43.738Z,100764.44
2022-10-05T19:07:20.414Z,100766.66
2022-10-05T19:10:51.953Z,100765.20
2022-10-05T19:14:29.278Z,100765.10
2022-10-05T19:18:28.728Z,100767.13
2022-10-05T19:22:03.810Z,100771.05
2022-10-05T19:25:40.578Z,100771.52
2022-10-05T19:29:16.117Z,100778.98
2022-10-05T19:32:56.046Z,100776.81
2022-10-05T19:36:37.007Z,100780.06
2022-10-05T19:40:12.545Z,100775.79
2022-10-05T19:43:58.438Z,100775.71
2022-10-05T19:47:40.902Z,100776.38
2022-10-05T19:51:17.824Z,100782.25
2022-10-05T19:54:45.585Z,100790.20
2022-10-05T19:58:24.360Z,100794.86
2022-10-05T20:01:54.041Z,100795.16
2022-10-05T20:05:21.526Z,100799.36
2022-10-05T20:08:50.331Z,100805.84
2022-10-05T20:12:17.584Z,100809.84
2022-10-05T20:16:39.706Z,100815.91
2022-10-05T20:20:38.404Z,100818.31
2022-10-05T20:24:12.792Z,100825.95
2022-10-05T20:27:47.059Z,100826.59
2022-10-05T20:31:14.682Z,100826.34
2022-10-05T20:34:43.438Z,100823.98
2022-10-05T20:38:10.161Z,100826.35
2022-10-05T20:41:37.072Z,100828.91
2022-10-05T20:45:04.685Z,100831.83
2022-10-05T20:48:31.911Z,100832.84
2022-10-05T20:51:58.997Z,100837.50
2022-10-05T20:55:31.543Z,100838.52
2022-10-05T20:58:58.399Z,100836.70
2022-10-05T21:02:25.213Z,100834.19
2022-10-05T21:05:52.202Z,100836.02
2022-10-05T21:09:21.566Z,100835.39
2022-10-05T21:12:48.484Z,100835.65
2022-10-05T21:16:17.355Z,100839.94
2022-10-05T21:19:44.208Z,100841.11
2022-10-05T21:23:12.378Z,100844.05
2022-10-05T21:26:39.316Z,100845.91
2022-10-05T21:30:07.830Z,100845.49
2022-10-05T21:33:34.932Z,100847.88
2022-10-05T21:37:01.568Z,100854.45
2022-10-05T21:40:28.316Z,100853.35
2022-10-05T21:43:55.155Z,100859.77
2022-10-05T21:47:21.842Z,100864.09
2022-10-05T21:50:48.869Z,100862.27
2022-10-05T21:54:17.902Z,100860.98
2022-10-05T21:57:58.460Z,100866.50
2022-10-05T22:01:25.456Z,100863.84
2022-10-05T22:04:52.166Z,100863.58
2022-10-05T22:08:25.347Z,100863.00
2022-10-05T22:11:52.594Z,100862.54
2022-10-05T22:15:19.731Z,100864.37
2022-10-05T22:18:47.097Z,100863.80
2022-10-05T22:22:14.049Z,100863.09
2022-10-05T22:25:41.405Z,100863.80
2022-10-05T22:29:08.785Z,100865.39
2022-10-05T22:32:35.725Z,100868.01
2022-10-05T22:36:03.841Z,100871.15
2022-10-05T22:39:31.205Z,100873.92
2022-10-05T22:42:58.030Z,100874.95
2022-10-05T22:46:24.665Z,100872.61
2022-10-05T22:49:51.607Z,100872.37
